createdAt,value
2022-08-16T00:01:24.452Z,34.50
2022-08-16T00:03:53.114Z,31.75
2022-08-16T00:06:21.589Z,32.50
2022-08-16T00:08:52.497Z,30.00
2022-08-16T00:11:21.403Z,29.50
2022-08-16T00:13:54.338Z,30.50
2022-08-16T00:17:01.535Z,28.25
2022-08-16T00:19:13.622Z,26.25
2022-08-16T00:21:42.386Z,27.00
2022-08-16T00:24:12.054Z,28.75
2022-08-16T00:26:45.105Z,27.00
2022-08-16T00:29:16.577Z,24.75
2022-08-16T00:31:59.624Z,23.50
2022-08-16T00:34:44.374Z,23.00
2022-08-16T00:37:20.449Z,22.50
2022-08-16T00:39:57.432Z,27.00
2022-08-16T00:42:30.295Z,24.75
2022-08-16T00:45:13.603Z,23.00
2022-08-16T00:47:49.222Z,24.50
2022-08-16T00:50:18.604Z,21.00
2022-08-16T00:52:50.932Z,23.25
2022-08-16T00:55:20.860Z,23.50
2022-08-16T00:57:58.568Z,23.50
2022-08-16T01:00:29.684Z,19.75
2022-08-16T01:02:58.315Z,24.50
2022-08-16T01:05:27.382Z,20.75
2022-08-16T01:07:59.666Z,23.25
2022-08-16T01:10:32.344Z,23.25
2022-08-16T01:13:05.433Z,22.25
2022-08-16T01:15:37.395Z,21.50
2022-08-16T01:18:38.856Z,20.50
2022-08-16T01:21:06.150Z,22.00
2022-08-16T01:23:57.940Z,22.00
2022-08-16T01:26:34.717Z,23.00
2022-08-16T01:29:05.688Z,23.75
2022-08-16T01:31:42.894Z,16.50
2022-08-16T01:34:25.080Z,22.75
2022-08-16T01:37:04.114Z,23.00
2022-08-16T01:39:35.127Z,22.75
2022-08-16T01:42:12.155Z,22.75
2022-08-16T01:44:43.429Z,21.50
2022-08-16T01:47:12.499Z,25.25
2022-08-16T01:50:41.175Z,23.75
2022-08-16T01:52:32.041Z,20.25
2022-08-16T01:55:12.016Z,23.00
2022-08-16T01:57:53.839Z,21.00
2022-08-16T02:00:29.200Z,24.00
2022-08-16T02:02:59.197Z,21.75
2022-08-16T02:05:30.457Z,23.50
2022-08-16T02:08:01.833Z,23.25
2022-08-16T02:10:30.998Z,24.75
2022-08-16T02:13:05.578Z,19.75
2022-08-16T02:15:42.584Z,20.00
2022-08-16T02:18:13.651Z,22.50
2022-08-16T02:20:49.024Z,23.50
2022-08-16T02:23:18.301Z,22.75
2022-08-16T02:25:52.923Z,23.00
2022-08-16T02:28:26.369Z,20.00
2022-08-16T02:30:56.260Z,18.25
2022-08-16T02:33:43.660Z,22.25
2022-08-16T02:36:42.291Z,18.75
2022-08-16T02:39:10.721Z,18.25
2022-08-16T02:41:40.430Z,23.00
2022-08-16T02:44:13.825Z,24.00
2022-08-16T02:46:50.371Z,25.50
2022-08-16T02:49:20.571Z,28.25
2022-08-16T02:51:50.138Z,20.25
2022-08-16T02:54:18.512Z,29.75
2022-08-16T02:56:52.787Z,27.25
2022-08-16T02:59:23.603Z,22.00
2022-08-16T03:01:51.915Z,29.75
2022-08-16T03:04:50.794Z,32.75
2022-08-16T03:07:17.047Z,29.25
2022-08-16T03:10:00.475Z,29.25
2022-08-16T03:12:37.768Z,28.50
2022-08-16T03:15:09.707Z,28.75
2022-08-16T03:17:53.162Z,25.75
2022-08-16T03:20:32.487Z,22.75
2022-08-16T03:23:03.356Z,22.00
2022-08-16T03:25:40.854Z,25.50
2022-08-16T03:28:12.822Z,21.50
2022-08-16T03:30:43.152Z,21.00
2022-08-16T03:33:12.977Z,22.00
2022-08-16T03:35:57.370Z,24.25
2022-08-16T03:38:32.973Z,23.25
2022-08-16T03:41:17.150Z,30.00
2022-08-16T03:43:57.108Z,24.75
2022-08-16T03:46:44.894Z,26.50
2022-08-16T03:49:22.568Z,22.50
2022-08-16T03:51:53.738Z,26.25
2022-08-16T03:54:28.580Z,31.00
2022-08-16T03:56:58.943Z,23.50
2022-08-16T03:59:31.618Z,23.75
2022-08-16T04:02:12.156Z,21.50
2022-08-16T04:04:54.152Z,25.50
2022-08-16T04:07:24.770Z,20.50
2022-08-16T04:09:54.068Z,25.75
2022-08-16T04:12:54.510Z,24.25
2022-08-16T04:15:12.511Z,22.00
2022-08-16T04:17:55.022Z,22.25
2022-08-16T04:20:29.371Z,20.00
2022-08-16T04:23:04.859Z,24.50
2022-08-16T04:25:35.599Z,22.75
2022-08-16T04:28:52.284Z,21.25
2022-08-16T04:30:53.692Z,20.75
2022-08-16T04:33:27.019Z,19.00
2022-08-16T04:35:59.645Z,15.25
2022-08-16T04:38:31.103Z,12.00
2022-08-16T04:41:00.044Z,18.25
2022-08-16T04:43:29.391Z,17.50
2022-08-16T04:46:03.081Z,18.00
2022-08-16T04:48:38.639Z,14.00
2022-08-16T04:51:12.723Z,20.25
2022-08-16T04:53:51.915Z,18.00
2022-08-16T04:56:21.795Z,15.75
2022-08-16T04:58:52.604Z,15.00
2022-08-16T05:01:55.949Z,16.50
2022-08-16T05:04:19.412Z,15.50
2022-08-16T05:06:49.783Z,16.75
2022-08-16T05:09:28.512Z,12.25
2022-08-16T05:11:58.892Z,17.25
2022-08-16T05:14:46.409Z,15.50
2022-08-16T05:17:24.857Z,14.50
2022-08-16T05:19:58.711Z,16.50
2022-08-16T05:22:39.381Z,16.25
2022-08-16T05:25:16.028Z,18.25
2022-08-16T05:27:50.140Z,14.50
2022-08-16T05:30:34.662Z,18.00
2022-08-16T05:33:09.124Z,15.50
2022-08-16T05:35:55.707Z,15.75
2022-08-16T05:38:46.625Z,14.00
2022-08-16T05:41:16.801Z,13.00
2022-08-16T05:43:47.969Z,13.50
2022-08-16T05:46:43.920Z,14.00
2022-08-16T05:49:22.435Z,12.80
2022-08-16T05:51:57.309Z,13.50
2022-08-16T05:54:26.406Z,10.00
2022-08-16T05:56:59.892Z,13.75
2022-08-16T05:59:29.431Z,14.00
2022-08-16T06:01:59.181Z,10.50
2022-08-16T06:04:34.804Z,14.00
2022-08-16T06:07:09.608Z,12.50
2022-08-16T06:10:00.316Z,10.40
2022-08-16T06:12:32.347Z,15.20
2022-08-16T06:15:10.154Z,12.00
2022-08-16T06:17:44.576Z,10.75
2022-08-16T06:20:35.226Z,12.33
2022-08-16T06:23:17.746Z,11.25
2022-08-16T06:26:09.586Z,11.00
2022-08-16T06:28:42.332Z,11.25
2022-08-16T06:31:24.632Z,10.00
2022-08-16T06:33:54.681Z,12.50
2022-08-16T06:36:24.796Z,9.50
2022-08-16T06:39:20.033Z,10.75
2022-08-16T06:41:59.835Z,10.60
2022-08-16T06:44:57.229Z,6.75
2022-08-16T06:47:53.466Z,8.75
2022-08-16T06:50:28.591Z,9.25
2022-08-16T06:53:00.383Z,9.00
2022-08-16T06:55:34.281Z,9.00
2022-08-16T06:58:08.822Z,8.50
2022-08-16T07:00:59.880Z,10.00
2022-08-16T07:03:32.254Z,9.00
2022-08-16T07:06:04.297Z,10.25
2022-08-16T07:08:42.566Z,10.20
2022-08-16T07:11:12.632Z,13.80
2022-08-16T07:14:24.394Z,6.00
2022-08-16T07:16:41.947Z,9.50
2022-08-16T07:19:11.613Z,9.25
2022-08-16T07:21:46.496Z,10.40
2022-08-16T07:24:30.185Z,10.00
2022-08-16T07:27:08.386Z,10.00
2022-08-16T07:29:40.069Z,7.40
2022-08-16T07:32:10.147Z,10.25
2022-08-16T07:34:48.560Z,10.75
2022-08-16T07:37:23.087Z,8.25
2022-08-16T07:40:17.360Z,9.20
2022-08-16T07:42:48.141Z,7.00
2022-08-16T07:45:17.354Z,9.00
2022-08-16T07:47:51.289Z,9.00
2022-08-16T07:50:56.563Z,9.75
2022-08-16T07:53:09.055Z,8.50
2022-08-16T07:55:46.047Z,9.75
2022-08-16T07:58:35.023Z,10.75
2022-08-16T08:01:10.612Z,8.00
2022-08-16T08:03:48.753Z,10.25
2022-08-16T08:06:21.494Z,2.80
2022-08-16T08:08:57.588Z,9.40
2022-08-16T08:11:28.925Z,6.00
2022-08-16T08:14:03.648Z,7.50
2022-08-16T08:16:37.390Z,7.75
2022-08-16T08:19:08.778Z,8.75
2022-08-16T08:22:00.232Z,7.00
2022-08-16T08:24:39.056Z,10.40
2022-08-16T08:27:22.972Z,7.50
2022-08-16T08:30:49.087Z,8.75
2022-08-16T08:32:57.821Z,8.50
2022-08-16T08:35:33.443Z,8.00
2022-08-16T08:38:04.308Z,10.25
2022-08-16T08:40:36.999Z,8.50
2022-08-16T08:43:12.485Z,7.25
2022-08-16T08:45:55.788Z,10.00
2022-08-16T08:48:32.944Z,9.00
2022-08-16T08:51:03.636Z,10.25
2022-08-16T08:53:32.772Z,9.00
2022-08-16T08:56:23.417Z,7.75
2022-08-16T08:58:53.647Z,7.50
2022-08-16T09:01:43.101Z,8.75
2022-08-16T09:04:26.026Z,10.75
2022-08-16T09:06:58.325Z,9.75
2022-08-16T09:09:33.667Z,9.25
2022-08-16T09:12:06.882Z,9.60
2022-08-16T09:14:56.540Z,11.00
2022-08-16T09:17:51.438Z,5.00
2022-08-16T09:20:19.995Z,9.50
2022-08-16T09:22:52.620Z,7.00
2022-08-16T09:25:33.685Z,9.75
2022-08-16T09:28:09.250Z,8.80
2022-08-16T09:31:02.002Z,6.25
2022-08-16T09:33:37.195Z,6.25
2022-08-16T09:36:12.066Z,7.00
2022-08-16T09:38:59.865Z,10.25
2022-08-16T09:41:28.461Z,11.00
2022-08-16T09:44:00.863Z,6.50
2022-08-16T09:46:51.033Z,8.25
2022-08-16T09:49:26.420Z,6.00
2022-08-16T09:52:06.100Z,10.50
2022-08-16T09:54:34.347Z,8.75
2022-08-16T09:57:03.039Z,9.75
2022-08-16T09:59:38.532Z,10.25
2022-08-16T10:02:26.567Z,8.50
2022-08-16T10:04:57.732Z,7.25
2022-08-16T10:07:26.723Z,5.25
2022-08-16T10:10:12.513Z,7.50
2022-08-16T10:13:04.395Z,7.25
2022-08-16T10:15:34.097Z,8.25
2022-08-16T10:18:56.164Z,10.00
2022-08-16T10:21:00.474Z,10.00
2022-08-16T10:23:29.926Z,9.75
2022-08-16T10:27:17.135Z,8.00
2022-08-16T10:28:46.957Z,9.00
2022-08-16T10:31:44.227Z,10.75
2022-08-16T10:34:30.846Z,9.00
2022-08-16T10:36:57.051Z,10.00
2022-08-16T10:39:25.846Z,10.75
2022-08-16T10:41:54.385Z,8.50
2022-08-16T10:44:22.581Z,10.00
2022-08-16T10:46:50.683Z,9.80
2022-08-16T10:49:18.943Z,10.50
2022-08-16T10:52:03.394Z,11.00
2022-08-16T10:54:58.620Z,8.25
2022-08-16T10:57:25.139Z,9.75
2022-08-16T11:00:04.782Z,9.00
2022-08-16T11:02:58.247Z,7.00
2022-08-16T11:05:21.475Z,9.25
2022-08-16T11:07:53.324Z,8.20
2022-08-16T11:19:06.001Z,9.25
2022-08-16T11:22:39.530Z,9.20
2022-08-16T11:24:39.541Z,10.00
2022-08-16T11:27:32.742Z,9.00
2022-08-16T11:29:58.715Z,6.75
2022-08-16T11:32:31.739Z,10.20
2022-08-16T11:35:15.045Z,9.00
2022-08-16T11:40:36.248Z,8.25
2022-08-16T11:43:06.529Z,9.75
2022-08-16T11:45:38.555Z,10.75
2022-08-16T11:48:07.300Z,10.00
2022-08-16T11:50:35.576Z,11.00
2022-08-16T11:53:04.713Z,4.75
2022-08-16T11:55:33.638Z,9.25
2022-08-16T11:58:11.015Z,8.00
2022-08-16T12:00:51.482Z,10.75
2022-08-16T12:03:29.738Z,8.20
2022-08-16T12:06:04.010Z,9.25
2022-08-16T12:08:33.381Z,7.25
2022-08-16T12:11:02.619Z,9.75
2022-08-16T12:13:33.105Z,14.00
2022-08-16T12:16:01.417Z,7.75
2022-08-16T12:18:29.656Z,7.75
2022-08-16T12:20:58.227Z,7.75
2022-08-16T12:23:28.440Z,12.00
2022-08-16T12:26:01.008Z,7.25
2022-08-16T12:28:52.085Z,11.75
2022-08-16T12:31:23.662Z,6.00
2022-08-16T12:33:54.308Z,9.25
2022-08-16T12:36:26.264Z,11.00
2022-08-16T12:38:58.036Z,11.00
2022-08-16T12:41:27.410Z,12.25
2022-08-16T12:44:00.943Z,11.00
2022-08-16T12:46:31.088Z,10.25
2022-08-16T12:48:58.965Z,13.50
2022-08-16T12:51:32.912Z,9.75
2022-08-16T12:54:17.206Z,10.00
2022-08-16T12:56:47.147Z,12.75
2022-08-16T12:59:20.237Z,15.25
2022-08-16T13:01:50.219Z,12.75
2022-08-16T13:04:20.581Z,11.75
2022-08-16T13:06:53.040Z,14.00
2022-08-16T13:09:26.375Z,12.50
2022-08-16T13:12:03.735Z,9.00
2022-08-16T13:14:38.424Z,12.00
2022-08-16T13:17:07.840Z,10.50
2022-08-16T13:20:03.878Z,13.75
2022-08-16T13:22:24.661Z,10.00
2022-08-16T13:24:53.507Z,13.00
2022-08-16T13:28:01.980Z,13.25
2022-08-16T13:30:35.357Z,11.50
2022-08-16T13:33:02.096Z,11.25
2022-08-16T13:35:42.691Z,10.00
2022-08-16T13:38:25.163Z,14.25
2022-08-16T13:40:57.005Z,14.75
2022-08-16T13:43:27.659Z,15.00
2022-08-16T13:46:01.726Z,14.75
2022-08-16T13:48:42.611Z,11.20
2022-08-16T13:51:16.852Z,12.40
2022-08-16T13:53:54.384Z,12.25
2022-08-16T13:56:26.699Z,13.00
2022-08-16T13:59:06.446Z,13.25
2022-08-16T14:01:55.311Z,14.00
2022-08-16T14:04:26.400Z,11.25
2022-08-16T14:06:56.240Z,12.00
2022-08-16T14:09:24.602Z,14.00
2022-08-16T14:11:56.026Z,14.75
2022-08-16T14:14:28.557Z,14.00
2022-08-16T14:17:01.028Z,16.50
2022-08-16T14:19:29.993Z,11.25
2022-08-16T14:22:14.931Z,10.25
2022-08-16T14:24:49.771Z,12.50
2022-08-16T14:27:18.930Z,14.00
2022-08-16T14:29:49.391Z,16.75
2022-08-16T14:32:27.274Z,14.50
2022-08-16T14:35:03.106Z,15.25
2022-08-16T14:37:32.681Z,19.25
2022-08-16T14:40:03.348Z,19.75
2022-08-16T14:42:32.187Z,17.00
2022-08-16T14:45:00.750Z,15.75
2022-08-16T14:47:34.055Z,16.25
2022-08-16T14:50:02.939Z,17.75
2022-08-16T14:55:22.731Z,16.75
2022-08-16T14:57:54.169Z,22.25
2022-08-16T15:00:33.074Z,21.25
2022-08-16T15:03:04.916Z,23.50
2022-08-16T15:05:34.291Z,22.00
2022-08-16T15:08:04.171Z,25.75
2022-08-16T15:10:32.718Z,21.00
2022-08-16T15:13:01.326Z,24.00
2022-08-16T15:15:30.882Z,22.00
2022-08-16T15:18:01.797Z,25.25
2022-08-16T15:20:33.308Z,25.50
2022-08-16T15:23:02.605Z,25.50
2022-08-16T15:25:33.181Z,23.25
2022-08-16T15:28:05.458Z,26.75
2022-08-16T15:30:57.948Z,20.50
2022-08-16T15:33:25.916Z,23.50
2022-08-16T15:35:58.239Z,23.50
2022-08-16T15:38:56.783Z,27.00
2022-08-16T15:41:32.163Z,23.25
2022-08-16T15:44:05.039Z,29.00
2022-08-16T15:46:54.618Z,25.25
2022-08-16T15:49:34.784Z,23.50
2022-08-16T15:52:08.367Z,31.00
2022-08-16T15:54:52.197Z,32.00
2022-08-16T15:57:22.712Z,29.50
2022-08-16T15:59:52.844Z,28.75
2022-08-16T16:02:29.290Z,31.25
2022-08-16T16:05:00.657Z,30.50
2022-08-16T16:07:33.829Z,28.00
2022-08-16T16:10:04.161Z,29.25
2022-08-16T16:12:51.751Z,23.75
2022-08-16T16:15:24.451Z,27.25
2022-08-16T16:17:53.114Z,32.75
2022-08-16T16:20:21.683Z,31.50
2022-08-16T16:22:51.763Z,29.25
2022-08-16T16:25:20.338Z,30.00
2022-08-16T16:27:55.902Z,32.00
2022-08-16T16:30:38.275Z,30.75
2022-08-16T16:33:15.842Z,29.25
2022-08-16T16:35:55.680Z,28.75
2022-08-16T16:38:30.996Z,26.75
2022-08-16T16:40:59.496Z,30.75
2022-08-16T16:43:31.362Z,33.00
2022-08-16T16:46:00.628Z,34.75
2022-08-16T16:48:34.881Z,35.75
2022-08-16T16:51:09.529Z,37.00
2022-08-16T16:53:42.204Z,34.75
2022-08-16T16:56:19.827Z,34.00
2022-08-16T16:59:01.013Z,39.25
2022-08-16T17:01:41.445Z,32.50
2022-08-16T17:04:27.404Z,31.00
2022-08-16T17:07:01.974Z,34.75
2022-08-16T17:09:32.342Z,34.50
2022-08-16T17:12:07.880Z,30.25
2022-08-16T17:14:38.514Z,34.00
2022-08-16T17:17:08.810Z,34.50
2022-08-16T17:19:41.811Z,36.75
2022-08-16T17:22:14.535Z,37.00
2022-08-16T17:24:50.221Z,39.00
2022-08-16T17:30:14.782Z,35.50
2022-08-16T17:32:47.802Z,39.50
2022-08-16T17:35:18.363Z,39.50
2022-08-16T17:37:51.422Z,36.75
2022-08-16T17:39:28.192Z,40.00
2022-08-16T17:40:30.210Z,37.75
2022-08-16T17:43:12.664Z,36.50
2022-08-16T17:45:43.072Z,39.25
2022-08-16T17:48:11.245Z,40.25
2022-08-16T17:50:40.192Z,40.25
2022-08-16T17:53:10.466Z,41.00
2022-08-16T17:55:42.166Z,40.80
2022-08-16T17:58:23.610Z,39.80
2022-08-16T18:00:53.600Z,40.00
2022-08-16T18:04:06.614Z,41.50
2022-08-16T18:06:15.008Z,42.20
2022-08-16T18:08:43.140Z,39.40
2022-08-16T18:11:13.544Z,43.20
2022-08-16T18:13:43.423Z,42.80
2022-08-16T18:16:12.174Z,43.40
2022-08-16T18:18:40.438Z,42.80
2022-08-16T18:21:26.236Z,40.40
2022-08-16T18:23:54.854Z,35.40
2022-08-16T18:26:24.639Z,42.20
2022-08-16T18:28:53.060Z,43.00
2022-08-16T18:31:21.357Z,40.00
2022-08-16T18:33:54.738Z,37.00
2022-08-16T18:36:24.305Z,36.60
2022-08-16T18:38:53.114Z,38.40
2022-08-16T18:41:22.722Z,40.40
2022-08-16T18:44:22.368Z,38.40
2022-08-16T18:46:41.587Z,40.20
2022-08-16T18:49:09.929Z,38.80
2022-08-16T18:51:42.722Z,39.20
2022-08-16T18:54:11.486Z,35.40
2022-08-16T18:56:54.249Z,41.00
2022-08-16T18:59:29.138Z,36.40
2022-08-16T19:02:00.291Z,37.50
2022-08-16T19:04:56.682Z,40.20
2022-08-16T19:07:20.726Z,39.60
2022-08-16T19:09:49.034Z,34.00
2022-08-16T19:12:17.404Z,37.00
2022-08-16T19:15:08.712Z,36.60
2022-08-16T19:17:40.587Z,41.20
2022-08-16T19:20:10.885Z,42.25
2022-08-16T19:23:02.289Z,40.00
2022-08-16T19:25:47.245Z,36.25
2022-08-16T19:28:49.257Z,37.00
2022-08-16T19:31:12.710Z,36.40
2022-08-16T19:33:41.392Z,41.00
2022-08-16T19:36:31.396Z,39.80
2022-08-16T19:39:04.766Z,37.00
2022-08-16T19:41:34.959Z,40.80
2022-08-16T19:44:03.550Z,38.40
2022-08-16T19:46:33.219Z,38.60
2022-08-16T19:49:01.370Z,38.40
2022-08-16T19:51:29.937Z,35.00
2022-08-16T19:53:58.122Z,38.20
2022-08-16T19:56:27.098Z,34.75
2022-08-16T19:59:18.237Z,38.40
2022-08-16T20:01:46.403Z,37.00
2022-08-16T20:04:14.840Z,38.00
2022-08-16T20:06:43.519Z,37.75
2022-08-16T20:09:15.260Z,38.75
2022-08-16T20:11:44.273Z,35.75
2022-08-16T20:14:25.543Z,39.75
2022-08-16T20:16:59.394Z,33.00
2022-08-16T20:19:28.570Z,39.00
2022-08-16T20:22:00.891Z,36.50
2022-08-16T20:24:34.614Z,40.25
2022-08-16T20:27:04.146Z,37.25
2022-08-16T20:29:32.293Z,37.00
2022-08-16T20:32:04.330Z,39.00
2022-08-16T20:34:32.647Z,39.50
2022-08-16T20:37:00.751Z,36.75
2022-08-16T20:39:28.947Z,29.25
2022-08-16T20:41:57.135Z,35.00
2022-08-16T20:44:25.480Z,35.00
2022-08-16T20:46:54.058Z,34.75
2022-08-16T20:49:26.067Z,35.00
2022-08-16T20:51:58.813Z,35.75
2022-08-16T20:54:28.555Z,34.50
2022-08-16T20:56:56.720Z,36.50
2022-08-16T20:59:24.905Z,35.00
2022-08-16T21:01:53.175Z,34.25
2022-08-16T21:04:22.146Z,32.00
2022-08-16T21:06:54.085Z,32.50
2022-08-16T21:09:24.488Z,34.75
2022-08-16T21:11:53.834Z,31.00
2022-08-16T21:14:21.971Z,25.75
2022-08-16T21:16:50.258Z,32.75
2022-08-16T21:19:18.520Z,33.00
2022-08-16T21:21:46.741Z,31.25
2022-08-16T21:24:16.807Z,30.50
2022-08-16T21:26:55.054Z,30.75
2022-08-16T21:29:25.096Z,32.25
2022-08-16T21:31:55.713Z,34.50
2022-08-16T21:34:24.170Z,31.25
2022-08-16T21:36:52.212Z,31.00
2022-08-16T21:39:21.668Z,31.00
2022-08-16T21:41:49.743Z,31.75
2022-08-16T21:44:17.891Z,32.00
2022-08-16T21:46:45.943Z,33.75
2022-08-16T21:49:14.018Z,33.25
2022-08-16T21:51:42.142Z,26.00
2022-08-16T21:54:10.353Z,32.00
2022-08-16T21:56:39.822Z,30.00
2022-08-16T21:59:11.088Z,29.50
2022-08-16T22:01:41.738Z,27.25
2022-08-16T22:04:37.821Z,26.50
2022-08-16T22:06:58.733Z,25.25
2022-08-16T22:09:26.992Z,24.50
2022-08-16T22:11:56.597Z,28.50
2022-08-16T22:14:24.676Z,22.75
2022-08-16T22:16:52.939Z,24.25
2022-08-16T22:19:24.022Z,29.00
2022-08-16T22:21:52.227Z,24.50
2022-08-16T22:24:20.308Z,16.50
2022-08-16T22:26:48.416Z,25.75
2022-08-16T22:29:17.904Z,17.75
2022-08-16T22:31:46.131Z,28.50
2022-08-16T22:34:14.419Z,25.00
2022-08-16T22:36:42.609Z,24.75
2022-08-16T22:39:12.335Z,28.25
2022-08-16T22:41:42.223Z,23.75
2022-08-16T22:44:10.425Z,24.00
2022-08-16T22:46:40.056Z,24.50
2022-08-16T22:49:08.348Z,30.25
2022-08-16T22:51:37.448Z,29.75
2022-08-16T22:54:44.329Z,28.75
2022-08-16T22:56:55.120Z,30.00
2022-08-16T22:59:24.995Z,29.25
2022-08-16T23:01:54.933Z,30.75
2022-08-16T23:04:24.062Z,26.25
2022-08-16T23:06:52.194Z,33.25
2022-08-16T23:09:20.313Z,32.75
2022-08-16T23:11:48.723Z,32.25
2022-08-16T23:14:17.184Z,30.00
2022-08-16T23:16:47.450Z,30.75
2022-08-16T23:19:17.928Z,31.50
2022-08-16T23:21:48.256Z,30.50
2022-08-16T23:24:17.661Z,30.25
2022-08-16T23:26:48.762Z,27.00
2022-08-16T23:29:24.771Z,27.50
2022-08-16T23:31:54.979Z,29.75
2022-08-16T23:34:24.804Z,28.50
2022-08-16T23:36:53.039Z,29.25
2022-08-16T23:39:21.177Z,31.75
2022-08-16T23:41:49.314Z,26.25
2022-08-16T23:44:44.123Z,23.75
2022-08-16T23:47:06.481Z,31.00
2022-08-16T23:49:57.923Z,34.00
2022-08-16T23:52:42.204Z,30.50
2022-08-16T23:55:12.958Z,29.75
2022-08-16T23:57:41.159Z,30.00
